Time;durP1;ratioP1;P1;durP2;ratioP2;P2;SDS_P1;SDS_P2;PMS_P1;PMS_P2;Temp;Humidity;BMP_temperature;BMP_pressure;BME280_temperature;BME280_humidity;BME280_pressure;Samples;Min_cycle;Max_cycle;Signal;HPM_P1;HPM_P2
2023/04/04 00:01:03;;;;;;;3.92;1.75;;;0.40;99.90;;;;;;4996225;28;20045;-73
2023/04/04 00:03:28;;;;;;;2.75;1.58;;;0.30;99.90;;;;;;4994023;28;20121;-73
2023/04/04 00:05:54;;;;;;;3.88;1.55;;;0.30;99.90;;;;;;4991630;28;20042;-73
2023/04/04 00:08:20;;;;;;;2.88;1.40;;;0.30;99.90;;;;;;4989960;28;20042;-72
2023/04/04 00:10:46;;;;;;;2.70;1.85;;;0.20;99.90;;;;;;5012986;28;20485;-71
2023/04/04 00:13:12;;;;;;;2.13;1.63;;;0.20;99.90;;;;;;4994642;28;20050;-73
2023/04/04 00:15:38;;;;;;;3.72;1.73;;;0.10;99.90;;;;;;4991079;28;20492;-72
2023/04/04 00:18:03;;;;;;;3.53;1.80;;;0.10;99.90;;;;;;5011475;28;20100;-73
2023/04/04 00:20:30;;;;;;;3.53;1.85;;;0.10;99.90;;;;;;4983650;28;20037;-72
2023/04/04 00:22:56;;;;;;;3.08;1.80;;;0.00;99.90;;;;;;4988715;28;20064;-72
2023/04/04 00:25:22;;;;;;;3.40;2.00;;;0.00;99.90;;;;;;4988545;28;20378;-73
2023/04/04 00:27:48;;;;;;;2.22;1.67;;;0.00;99.90;;;;;;4982181;28;20041;-72
2023/04/04 00:30:13;;;;;;;4.25;1.98;;;-0.10;99.90;;;;;;4980859;28;20042;-73
2023/04/04 00:32:39;;;;;;;4.85;2.35;;;-0.10;99.90;;;;;;5013699;28;20121;-72
2023/04/04 00:35:05;;;;;;;3.53;1.95;;;-0.10;99.90;;;;;;4993139;28;20054;-73
2023/04/04 00:37:30;;;;;;;6.97;2.03;;;-0.10;99.90;;;;;;4995577;28;20065;-72
2023/04/04 00:39:56;;;;;;;3.60;2.10;;;-0.10;99.90;;;;;;4992906;28;20073;-72
2023/04/04 00:42:22;;;;;;;3.58;1.90;;;-0.20;99.90;;;;;;4996631;28;20088;-72
2023/04/04 00:44:48;;;;;;;6.07;2.15;;;-0.10;99.90;;;;;;4995861;28;20037;-73
2023/04/04 00:47:14;;;;;;;4.00;2.08;;;-0.20;99.90;;;;;;4991148;28;20134;-72
2023/04/04 00:49:39;;;;;;;3.55;1.90;;;-0.20;99.90;;;;;;4974330;28;20073;-72
2023/04/04 00:52:06;;;;;;;2.97;2.03;;;-0.20;99.90;;;;;;4977508;28;20095;-73
2023/04/04 00:54:33;;;;;;;4.40;2.17;;;-0.30;99.90;;;;;;4983296;28;20080;-73
2023/04/04 00:57:01;;;;;;;4.10;1.75;;;-0.30;99.90;;;;;;5012053;28;20054;-73
2023/04/04 00:59:27;;;;;;;3.60;2.10;;;-0.30;99.90;;;;;;5012856;28;20069;-73
2023/04/04 01:01:53;;;;;;;5.65;1.98;;;-0.30;99.90;;;;;;5030580;28;20048;-73
2023/04/04 01:04:19;;;;;;;5.53;2.63;;;-0.30;99.90;;;;;;5010288;28;20853;-73
2023/04/04 01:06:45;;;;;;;4.47;2.30;;;-0.30;99.90;;;;;;5012322;28;20128;-73
2023/04/04 01:09:11;;;;;;;3.33;1.80;;;-0.40;99.90;;;;;;5028478;28;20080;-73
2023/04/04 01:11:37;;;;;;;2.65;1.77;;;-0.30;99.90;;;;;;5011245;28;20037;-73
2023/04/04 01:14:03;;;;;;;4.97;2.10;;;-0.30;99.90;;;;;;5010802;28;20761;-73
2023/04/04 01:16:29;;;;;;;5.93;2.08;;;-0.40;99.90;;;;;;5010397;28;20045;-73
2023/04/04 01:18:55;;;;;;;5.30;1.98;;;-0.40;99.90;;;;;;5009140;28;20041;-71
2023/04/04 01:21:22;;;;;;;6.32;2.00;;;-0.20;99.90;;;;;;5008095;28;20556;-73
2023/04/04 01:23:59;;;;;;;7.28;2.50;;;-0.30;99.90;;;;;;5013983;28;20473;-73
2023/04/04 01:26:26;;;;;;;5.43;2.42;;;-0.30;99.90;;;;;;5008254;28;20477;-72
2023/04/04 01:28:52;;;;;;;4.93;2.40;;;-0.30;99.90;;;;;;5007690;28;20476;-71
2023/04/04 01:31:24;;;;;;;6.07;2.22;;;-0.20;99.90;;;;;;5000567;28;20041;-72
2023/04/04 01:34:03;;;;;;;3.53;2.80;;;-0.40;99.90;;;;;;5002184;28;20057;-71
2023/04/04 01:36:36;;;;;;;5.97;2.53;;;-0.40;99.90;;;;;;5024796;28;20050;-72
2023/04/04 01:39:15;;;;;;;5.18;3.22;;;-0.40;99.90;;;;;;5007181;28;20121;-72
2023/04/04 01:41:42;;;;;;;5.72;2.55;;;-0.50;99.90;;;;;;5026023;28;20038;-71
2023/04/04 01:44:08;;;;;;;3.80;2.30;;;-0.60;99.90;;;;;;4990664;28;20044;-72
2023/04/04 01:46:35;;;;;;;5.57;2.72;;;-0.50;99.90;;;;;;5009993;28;20049;-72
2023/04/04 01:49:01;;;;;;;5.57;3.20;;;-0.60;99.90;;;;;;5012045;28;20081;-71
2023/04/04 01:51:27;;;;;;;4.10;2.05;;;-0.60;99.90;;;;;;5011259;28;20042;-72
2023/04/04 01:53:53;;;;;;;6.68;2.80;;;-0.60;99.90;;;;;;5012936;28;20584;-73
2023/04/04 01:56:19;;;;;;;5.07;3.08;;;-0.70;99.90;;;;;;5003093;28;20053;-71
2023/04/04 01:58:44;;;;;;;4.80;2.78;;;-0.60;99.90;;;;;;5012725;28;20501;-71
2023/04/04 02:01:10;;;;;;;6.43;2.95;;;-0.70;99.90;;;;;;5008181;28;20041;-72
2023/04/04 02:03:35;;;;;;;3.97;2.65;;;-0.70;99.90;;;;;;5014726;28;20137;-72
2023/04/04 02:06:01;;;;;;;8.40;2.42;;;-0.70;99.90;;;;;;5009964;28;20048;-71
2023/04/04 02:08:27;;;;;;;8.30;2.88;;;-0.80;99.90;;;;;;5013791;28;20053;-72
2023/04/04 02:10:55;;;;;;;6.70;3.05;;;-0.80;99.90;;;;;;4998241;28;20495;-71
2023/04/04 02:13:21;;;;;;;6.95;2.80;;;-0.80;99.90;;;;;;5008388;28;20041;-71
2023/04/04 02:15:48;;;;;;;3.72;2.25;;;-0.80;99.90;;;;;;5022064;28;20071;-71
2023/04/04 02:18:13;;;;;;;4.50;2.40;;;-0.80;99.90;;;;;;5007949;28;20060;-71
2023/04/04 02:20:39;;;;;;;8.13;3.00;;;-0.80;99.90;;;;;;5001828;28;20041;-71
2023/04/04 02:23:05;;;;;;;8.13;2.40;;;-0.80;99.90;;;;;;5009393;28;20044;-71
2023/04/04 02:25:30;;;;;;;6.45;3.20;;;-0.80;99.90;;;;;;5008777;28;20122;-71
2023/04/04 02:27:56;;;;;;;5.75;2.30;;;-0.80;99.90;;;;;;5002230;28;20045;-71
2023/04/04 02:30:21;;;;;;;6.35;3.08;;;-0.80;99.90;;;;;;4984025;28;20037;-72
2023/04/04 02:32:47;;;;;;;7.72;2.63;;;-0.80;99.90;;;;;;4997499;28;22220;-71
2023/04/04 02:35:14;;;;;;;6.60;2.67;;;-0.80;99.90;;;;;;4996721;28;20037;-71
2023/04/04 02:37:39;;;;;;;5.57;2.75;;;-0.90;99.90;;;;;;4984215;28;20124;-69
2023/04/04 02:40:05;;;;;;;6.45;3.33;;;-0.90;99.90;;;;;;5010695;28;20592;-71
2023/04/04 02:42:31;;;;;;;4.20;2.60;;;-0.90;99.90;;;;;;5000725;28;20042;-71
2023/04/04 02:44:56;;;;;;;5.57;2.70;;;-0.90;99.90;;;;;;4999569;28;20504;-71
2023/04/04 02:47:22;;;;;;;6.97;3.10;;;-0.90;99.90;;;;;;4997430;28;20071;-70
2023/04/04 02:49:47;;;;;;;7.10;2.50;;;-0.90;99.90;;;;;;4998433;28;20131;-70
2023/04/04 02:52:13;;;;;;;6.50;3.00;;;-1.00;99.90;;;;;;5003718;28;20485;-70
2023/04/04 02:54:38;;;;;;;4.90;2.60;;;-0.90;99.90;;;;;;5020981;28;20106;-70
2023/04/04 02:57:04;;;;;;;3.35;2.70;;;-1.00;99.90;;;;;;4988511;28;20076;-70
2023/04/04 02:59:30;;;;;;;6.60;2.75;;;-1.00;99.90;;;;;;5009806;28;20449;-70
2023/04/04 03:01:55;;;;;;;6.68;2.85;;;-1.10;99.90;;;;;;5007571;28;20030;-70
2023/04/04 03:04:21;;;;;;;5.20;2.95;;;-1.10;99.90;;;;;;4997920;28;20148;-70
2023/04/04 03:06:47;;;;;;;4.13;2.85;;;-1.10;99.90;;;;;;5018306;28;20064;-70
2023/04/04 03:09:13;;;;;;;4.63;2.53;;;-1.10;99.90;;;;;;5008770;28;20045;-70
2023/04/04 03:11:38;;;;;;;6.45;3.03;;;-1.10;99.90;;;;;;5015794;28;20071;-70
2023/04/04 03:14:04;;;;;;;6.50;2.60;;;-1.10;99.90;;;;;;5008017;28;20038;-70
2023/04/04 03:16:29;;;;;;;5.20;2.95;;;-1.10;99.90;;;;;;5007281;28;20045;-70
2023/04/04 03:18:55;;;;;;;4.05;2.47;;;-1.10;99.90;;;;;;5007929;28;20111;-70
2023/04/04 03:21:21;;;;;;;4.82;2.42;;;-1.10;99.90;;;;;;5010339;28;20029;-70
2023/04/04 03:23:46;;;;;;;4.78;3.25;;;-1.20;99.90;;;;;;5014000;28;20033;-70
2023/04/04 03:26:12;;;;;;;3.90;2.22;;;-1.20;99.90;;;;;;5006599;28;20049;-70
2023/04/04 03:28:38;;;;;;;4.43;2.70;;;-1.20;99.90;;;;;;5013362;28;20065;-70
2023/04/04 03:31:04;;;;;;;5.25;3.00;;;-1.10;99.90;;;;;;5015269;28;20041;-70
2023/04/04 03:33:31;;;;;;;4.38;2.80;;;-1.20;99.90;;;;;;5010167;28;20056;-70
2023/04/04 03:35:58;;;;;;;3.85;2.45;;;-1.20;99.90;;;;;;5012995;28;20053;-69
2023/04/04 03:38:23;;;;;;;5.22;2.67;;;-1.30;99.90;;;;;;5025530;28;20076;-70
2023/04/04 03:40:49;;;;;;;4.53;2.90;;;-1.30;99.90;;;;;;5032636;28;20037;-70
2023/04/04 03:43:15;;;;;;;5.53;2.53;;;-1.30;99.90;;;;;;5009867;28;20466;-70
2023/04/04 03:45:41;;;;;;;6.72;2.80;;;-1.20;99.90;;;;;;5003535;28;20045;-69
2023/04/04 03:48:09;;;;;;;5.63;2.80;;;-1.30;99.90;;;;;;4998155;28;20149;-70
2023/04/04 03:50:35;;;;;;;5.50;2.80;;;-1.30;99.90;;;;;;5013082;28;20385;-70
2023/04/04 03:53:01;;;;;;;3.05;2.38;;;-1.20;99.90;;;;;;5010890;28;20041;-70
2023/04/04 03:55:27;;;;;;;4.57;2.50;;;-1.30;99.90;;;;;;5009948;28;20056;-69
2023/04/04 03:57:52;;;;;;;5.15;2.67;;;-1.30;99.90;;;;;;5013045;28;20046;-70
2023/04/04 04:00:18;;;;;;;4.25;2.53;;;-1.30;99.90;;;;;;5014330;28;20120;-70
2023/04/04 04:02:43;;;;;;;5.85;2.58;;;-1.30;99.90;;;;;;5014556;28;20042;-70
2023/04/04 04:05:09;;;;;;;7.70;2.88;;;-1.40;99.90;;;;;;5010071;28;20030;-70
2023/04/04 04:07:35;;;;;;;5.10;3.08;;;-1.40;99.90;;;;;;5031390;28;20444;-70
2023/04/04 04:10:00;;;;;;;7.95;2.90;;;-1.40;99.90;;;;;;4998945;28;20133;-69
2023/04/04 04:12:26;;;;;;;3.90;2.08;;;-1.40;99.90;;;;;;5006097;28;20037;-70
2023/04/04 04:14:51;;;;;;;4.18;2.55;;;-1.50;99.90;;;;;;5013104;28;20103;-69
2023/04/04 04:17:17;;;;;;;3.88;2.70;;;-1.50;99.90;;;;;;5030692;28;20485;-69
2023/04/04 04:19:43;;;;;;;4.35;2.35;;;-1.50;99.90;;;;;;5012237;28;20460;-69
2023/04/04 04:22:09;;;;;;;6.80;2.58;;;-1.60;99.90;;;;;;5008867;28;20038;-69
2023/04/04 04:24:34;;;;;;;5.82;2.35;;;-1.50;99.90;;;;;;4998997;28;20042;-70
2023/04/04 04:27:00;;;;;;;7.25;2.92;;;-1.60;99.90;;;;;;5006932;28;20037;-70
2023/04/04 04:29:25;;;;;;;4.72;2.53;;;-1.60;99.90;;;;;;5023519;28;20057;-69
2023/04/04 04:31:54;;;;;;;4.60;2.17;;;-1.60;99.90;;;;;;4999217;28;22455;-70
2023/04/04 04:34:19;;;;;;;7.93;3.03;;;-1.60;99.90;;;;;;5000492;28;20205;-70
2023/04/04 04:36:46;;;;;;;5.38;2.88;;;-1.60;99.90;;;;;;5026370;28;20124;-69
2023/04/04 04:39:11;;;;;;;4.50;2.58;;;-1.60;99.90;;;;;;5002472;28;20485;-69
2023/04/04 04:41:37;;;;;;;6.35;2.67;;;-1.60;99.90;;;;;;5013369;28;20038;-69
2023/04/04 04:44:05;;;;;;;6.07;2.55;;;-1.60;99.90;;;;;;4999657;28;20122;-69
2023/04/04 04:46:31;;;;;;;7.13;3.42;;;-1.60;99.90;;;;;;5000095;28;20572;-69
2023/04/04 04:48:57;;;;;;;4.65;3.03;;;-1.60;99.90;;;;;;5016925;28;20164;-69
2023/04/04 04:51:22;;;;;;;5.93;2.70;;;-1.70;99.90;;;;;;4999698;28;20501;-70
2023/04/04 04:53:48;;;;;;;3.20;2.35;;;-1.70;99.90;;;;;;5001312;28;20041;-69
2023/04/04 04:56:13;;;;;;;5.00;2.65;;;-1.80;99.90;;;;;;5022114;28;20050;-70
2023/04/04 04:58:39;;;;;;;6.03;3.08;;;-1.80;99.90;;;;;;5010390;28;20045;-69
2023/04/04 05:01:05;;;;;;;7.78;3.05;;;-1.80;99.90;;;;;;5007675;28;20033;-69
2023/04/04 05:03:30;;;;;;;4.80;2.70;;;-1.80;99.90;;;;;;5011605;28;20025;-70
2023/04/04 05:05:57;;;;;;;4.43;2.58;;;-1.80;99.90;;;;;;5009721;28;20042;-70
2023/04/04 05:08:22;;;;;;;4.38;2.72;;;-1.70;99.90;;;;;;5025429;28;20050;-69
2023/04/04 05:10:49;;;;;;;5.07;2.92;;;-1.70;99.90;;;;;;5005512;28;20033;-70
2023/04/04 05:13:15;;;;;;;5.72;2.80;;;-1.70;99.90;;;;;;5009385;28;20071;-70
2023/04/04 05:15:40;;;;;;;4.15;3.15;;;-1.70;99.90;;;;;;5027089;28;20057;-69
2023/04/04 05:18:06;;;;;;;7.15;3.13;;;-1.70;99.90;;;;;;5013277;28;20095;-69
2023/04/04 05:20:32;;;;;;;6.05;3.95;;;-1.70;99.90;;;;;;5009133;28;20492;-69
2023/04/04 05:22:57;;;;;;;5.03;3.08;;;-1.70;99.90;;;;;;5029909;28;20064;-69
2023/04/04 05:25:23;;;;;;;5.35;3.00;;;-1.70;99.90;;;;;;5007604;28;20041;-69
2023/04/04 05:27:48;;;;;;;9.20;3.00;;;-1.70;99.90;;;;;;5009291;28;20103;-70
2023/04/04 05:30:15;;;;;;;6.63;2.55;;;-1.60;99.90;;;;;;5010983;28;20041;-69
2023/04/04 05:32:40;;;;;;;7.10;3.00;;;-1.50;99.90;;;;;;5010632;28;20428;-69
2023/04/04 05:35:06;;;;;;;11.15;3.10;;;-1.40;99.90;;;;;;5002179;28;20045;-70
2023/04/04 05:37:32;;;;;;;6.80;3.03;;;-1.40;99.90;;;;;;5006317;28;20025;-69
2023/04/04 05:39:58;;;;;;;4.22;2.80;;;-1.40;99.90;;;;;;5005208;28;20038;-69
2023/04/04 05:42:23;;;;;;;4.20;3.13;;;-1.30;99.90;;;;;;5008653;28;20045;-69
2023/04/04 05:44:49;;;;;;;10.25;2.90;;;-1.20;99.90;;;;;;5006625;28;20087;-70
2023/04/04 05:47:14;;;;;;;6.05;3.40;;;-1.20;99.90;;;;;;5006228;28;20045;-69
2023/04/04 05:49:40;;;;;;;6.22;2.92;;;-1.20;99.90;;;;;;4992745;28;20061;-70
2023/04/04 05:52:06;;;;;;;5.25;2.72;;;-1.10;99.90;;;;;;5008141;28;20132;-70
2023/04/04 05:54:32;;;;;;;6.07;3.38;;;-1.00;99.90;;;;;;5017550;28;20374;-70
2023/04/04 05:56:57;;;;;;;5.72;2.78;;;-1.00;99.90;;;;;;5013495;28;20041;-70
2023/04/04 05:59:23;;;;;;;5.15;3.45;;;-0.90;99.90;;;;;;5003220;28;20042;-70
2023/04/04 06:01:48;;;;;;;5.25;2.95;;;-0.80;99.90;;;;;;5006175;28;20042;-70
2023/04/04 06:04:14;;;;;;;11.07;3.80;;;-0.80;99.90;;;;;;5010691;28;20099;-69
2023/04/04 06:06:40;;;;;;;5.50;2.92;;;-0.70;99.90;;;;;;5007584;28;20469;-70
2023/04/04 06:09:05;;;;;;;7.63;3.60;;;-0.60;99.90;;;;;;5009989;28;20042;-70
2023/04/04 06:11:31;;;;;;;7.68;3.47;;;-0.50;99.90;;;;;;5006154;28;20052;-70
2023/04/04 06:13:56;;;;;;;4.53;2.60;;;-0.50;99.90;;;;;;5011184;28;20045;-69
2023/04/04 06:16:22;;;;;;;4.78;3.15;;;-0.40;99.90;;;;;;5009216;28;20567;-70
2023/04/04 06:18:48;;;;;;;4.47;2.97;;;-0.40;99.90;;;;;;5001216;28;20469;-69
2023/04/04 06:21:13;;;;;;;5.45;3.05;;;-0.30;99.90;;;;;;4990800;28;20061;-70
2023/04/04 06:23:39;;;;;;;5.82;3.60;;;-0.20;99.90;;;;;;5004053;28;20120;-68
2023/04/04 06:26:05;;;;;;;5.43;3.35;;;-0.10;99.90;;;;;;4998770;28;20060;-70
2023/04/04 06:28:31;;;;;;;5.25;3.10;;;0.00;99.90;;;;;;5006993;28;20717;-70
2023/04/04 06:30:57;;;;;;;6.35;3.65;;;0.10;99.90;;;;;;5006401;28;20041;-70
2023/04/04 06:33:22;;;;;;;5.00;3.60;;;0.30;99.90;;;;;;5010721;28;20821;-70
2023/04/04 06:35:48;;;;;;;7.70;3.45;;;0.40;99.90;;;;;;5017889;28;20049;-69
2023/04/04 06:38:13;;;;;;;4.90;3.47;;;0.70;99.90;;;;;;5017714;28;20045;-70
2023/04/04 06:40:39;;;;;;;6.05;3.38;;;0.90;99.90;;;;;;4987549;28;20167;-70
2023/04/04 06:43:05;;;;;;;5.00;3.42;;;1.20;99.90;;;;;;4998906;28;20084;-68
2023/04/04 06:45:32;;;;;;;6.95;3.13;;;1.40;99.90;;;;;;4996390;28;20630;-68
2023/04/04 06:47:58;;;;;;;7.65;3.72;;;1.70;99.90;;;;;;4996620;28;20046;-68
2023/04/04 06:50:24;;;;;;;3.50;2.80;;;1.90;99.90;;;;;;5017813;28;20049;-68
2023/04/04 06:52:50;;;;;;;8.20;3.22;;;2.20;99.90;;;;;;5009404;28;20041;-69
2023/04/04 06:55:16;;;;;;;3.90;3.28;;;2.40;99.90;;;;;;4993845;28;20544;-69
2023/04/04 06:57:42;;;;;;;4.78;2.88;;;2.60;99.90;;;;;;5007217;28;20057;-68
2023/04/04 07:00:09;;;;;;;4.50;2.60;;;2.90;99.90;;;;;;5011824;28;20037;-68
2023/04/04 07:02:35;;;;;;;10.77;3.00;;;3.10;99.90;;;;;;5027898;28;20029;-68
2023/04/04 07:05:02;;;;;;;4.13;2.85;;;3.40;99.90;;;;;;5026363;28;20045;-68
2023/04/04 07:07:28;;;;;;;6.57;2.85;;;3.60;99.90;;;;;;5032365;28;20437;-68
2023/04/04 07:09:54;;;;;;;7.60;2.95;;;3.80;99.90;;;;;;5005322;28;20041;-69
2023/04/04 07:12:20;;;;;;;4.82;2.80;;;4.00;99.90;;;;;;5015086;28;20092;-69
2023/04/04 07:14:46;;;;;;;5.93;2.60;;;4.30;99.90;;;;;;5014317;28;20036;-69
2023/04/04 07:17:11;;;;;;;5.22;3.22;;;4.60;99.90;;;;;;5013254;28;20046;-70
2023/04/04 07:19:37;;;;;;;4.93;3.00;;;4.70;99.90;;;;;;5026749;28;20512;-70
2023/04/04 07:22:03;;;;;;;5.22;2.90;;;4.90;99.90;;;;;;5005414;28;20038;-69
2023/04/04 07:24:28;;;;;;;5.65;2.92;;;5.20;99.90;;;;;;5013203;28;20104;-68
2023/04/04 07:26:54;;;;;;;3.58;2.67;;;5.30;99.90;;;;;;5030585;28;20072;-69
2023/04/04 07:29:20;;;;;;;3.55;2.72;;;5.40;99.90;;;;;;4986632;28;20084;-70
2023/04/04 07:31:46;;;;;;;4.68;2.58;;;5.50;99.90;;;;;;5020329;28;20037;-69
2023/04/04 07:34:12;;;;;;;3.03;2.30;;;5.80;99.90;;;;;;4999361;28;20139;-70
2023/04/04 07:36:38;;;;;;;3.53;2.55;;;6.10;99.90;;;;;;4981163;28;20577;-69
2023/04/04 07:39:03;;;;;;;4.75;2.58;;;6.30;99.90;;;;;;4978185;28;20033;-70
2023/04/04 07:41:29;;;;;;;5.38;2.97;;;6.60;99.90;;;;;;5025761;28;20133;-69
2023/04/04 07:43:55;;;;;;;4.05;2.30;;;6.90;99.90;;;;;;5007504;28;20048;-69
2023/04/04 07:46:21;;;;;;;3.78;2.22;;;6.90;99.90;;;;;;5012838;28;20037;-71
2023/04/04 07:48:46;;;;;;;3.35;2.03;;;6.90;99.90;;;;;;5032639;28;20038;-71
2023/04/04 07:51:12;;;;;;;6.10;2.20;;;6.90;99.90;;;;;;5012132;28;20041;-71
2023/04/04 07:53:38;;;;;;;5.22;2.20;;;6.70;99.10;;;;;;5001972;28;20042;-71
2023/04/04 07:56:06;;;;;;;4.65;2.00;;;6.70;99.80;;;;;;5015593;28;20056;-72
2023/04/04 07:58:33;;;;;;;3.80;2.08;;;6.60;99.40;;;;;;5016641;28;20377;-72
2023/04/04 08:01:02;;;;;;;4.22;2.22;;;7.00;96.60;;;;;;5015239;28;20061;-72
2023/04/04 08:03:28;;;;;;;3.90;1.98;;;7.10;95.00;;;;;;5013551;28;20343;-69
2023/04/04 08:05:54;;;;;;;4.10;2.05;;;7.20;91.10;;;;;;5008957;28;20045;-70
2023/04/04 08:08:20;;;;;;;3.05;1.70;;;7.20;90.30;;;;;;5016622;28;20037;-71
2023/04/04 08:10:45;;;;;;;3.50;2.05;;;7.20;88.20;;;;;;5013648;28;20040;-69
2023/04/04 08:13:12;;;;;;;4.20;2.08;;;7.10;87.70;;;;;;5014732;28;20465;-72
2023/04/04 08:15:38;;;;;;;2.90;1.67;;;7.00;77.00;;;;;;5012185;28;20528;-71
2023/04/04 08:18:04;;;;;;;6.80;2.00;;;6.90;80.70;;;;;;5011942;28;20077;-72
2023/04/04 08:20:30;;;;;;;4.63;1.88;;;6.90;80.00;;;;;;5008924;28;20065;-71
2023/04/04 08:22:56;;;;;;;3.60;2.13;;;6.90;76.80;;;;;;5012865;28;20037;-72
2023/04/04 08:25:22;;;;;;;5.03;1.67;;;6.90;76.00;;;;;;5007847;28;20041;-72
2023/04/04 08:27:47;;;;;;;3.55;1.65;;;7.00;75.80;;;;;;5013525;28;20474;-72
2023/04/04 08:30:14;;;;;;;4.28;1.80;;;7.30;71.10;;;;;;4997972;28;20056;-72
2023/04/04 08:32:41;;;;;;;3.88;1.88;;;7.40;70.50;;;;;;5029745;28;20094;-72
2023/04/04 08:35:07;;;;;;;2.95;2.10;;;7.60;68.20;;;;;;5010006;28;20041;-71
2023/04/04 08:37:34;;;;;;;1.98;1.23;;;7.90;66.10;;;;;;5012173;28;20638;-72
2023/04/04 08:40:01;;;;;;;5.28;1.83;;;8.20;65.80;;;;;;5030761;28;20048;-73
2023/04/04 08:42:29;;;;;;;2.22;1.55;;;8.70;64.90;;;;;;4999208;28;20056;-72
2023/04/04 08:44:58;;;;;;;2.08;1.55;;;9.10;60.70;;;;;;5030377;28;20049;-73
2023/04/04 08:47:25;;;;;;;2.45;1.40;;;9.60;59.80;;;;;;5011863;28;20053;-74
2023/04/04 08:49:53;;;;;;;3.40;1.80;;;9.90;57.80;;;;;;5010281;28;20037;-72
2023/04/04 08:52:21;;;;;;;3.28;1.67;;;10.20;56.70;;;;;;5011820;28;20378;-73
2023/04/04 08:54:49;;;;;;;2.58;1.50;;;10.20;55.00;;;;;;5013845;28;20068;-73
2023/04/04 08:57:15;;;;;;;4.32;1.90;;;10.20;56.40;;;;;;5013315;28;20052;-72
2023/04/04 08:59:41;;;;;;;3.08;1.42;;;10.30;56.10;;;;;;5009397;28;20049;-73
2023/04/04 09:02:10;;;;;;;2.08;1.33;;;10.10;54.80;;;;;;5011414;28;20342;-73
2023/04/04 09:04:38;;;;;;;2.42;1.15;;;9.90;54.30;;;;;;5009571;28;20038;-72
2023/04/04 09:07:05;;;;;;;2.25;1.00;;;9.60;55.20;;;;;;5012447;28;20041;-73
2023/04/04 09:09:32;;;;;;;1.38;1.17;;;9.50;56.10;;;;;;5011799;28;20045;-71
2023/04/04 09:12:00;;;;;;;2.88;1.05;;;9.30;55.80;;;;;;5030935;28;20038;-73
2023/04/04 09:14:28;;;;;;;3.67;1.50;;;9.20;54.10;;;;;;5012296;28;20068;-72
2023/04/04 09:16:54;;;;;;;5.00;1.23;;;8.90;54.60;;;;;;5012910;28;20049;-72
2023/04/04 09:19:20;;;;;;;2.80;1.33;;;9.40;54.60;;;;;;5009194;28;20072;-72
2023/04/04 09:21:47;;;;;;;3.35;1.20;;;9.60;53.10;;;;;;5012313;28;20484;-72
2023/04/04 09:24:13;;;;;;;1.60;0.90;;;9.70;52.60;;;;;;5022244;28;20068;-71
2023/04/04 09:26:52;;;;;;;2.38;1.10;;;9.90;52.60;;;;;;5002881;28;20037;-72
2023/04/04 09:29:21;;;;;;;5.50;1.23;;;9.70;48.40;;;;;;4999025;28;20045;-70
2023/04/04 09:31:48;;;;;;;1.98;1.00;;;9.60;51.60;;;;;;5002321;28;20390;-71
2023/04/04 09:34:19;;;;;;;4.43;1.23;;;9.40;51.00;;;;;;4997247;28;20053;-73
2023/04/04 09:36:45;;;;;;;4.15;1.20;;;9.10;48.60;;;;;;4999934;28;20095;-69
2023/04/04 09:39:12;;;;;;;1.98;1.13;;;9.10;51.40;;;;;;4995507;28;20045;-70
2023/04/04 09:41:41;;;;;;;2.75;1.35;;;9.30;52.60;;;;;;5000127;28;20170;-70
2023/04/04 09:44:09;;;;;;;3.30;1.15;;;9.20;51.60;;;;;;5025634;28;20096;-71
2023/04/04 09:46:36;;;;;;;2.20;1.50;;;9.00;50.20;;;;;;4996130;28;20041;-73
2023/04/04 09:49:03;;;;;;;2.75;1.00;;;9.00;51.00;;;;;;5007686;28;20075;-70
2023/04/04 09:51:36;;;;;;;3.72;1.10;;;9.20;51.30;;;;;;5007895;28;20101;-72
2023/04/04 09:54:02;;;;;;;2.08;1.23;;;9.00;49.50;;;;;;5009243;28;20623;-72
2023/04/04 09:56:28;;;;;;;3.03;1.60;;;9.10;49.90;;;;;;5009800;28;20049;-72
2023/04/04 09:58:54;;;;;;;2.05;1.20;;;9.00;50.10;;;;;;5013355;28;20128;-72
2023/04/04 10:01:20;;;;;;;3.65;0.98;;;9.00;49.20;;;;;;4994586;28;20037;-71
2023/04/04 10:03:53;;;;;;;3.28;1.23;;;9.10;49.70;;;;;;5007915;28;20037;-71
2023/04/04 10:06:20;;;;;;;2.85;1.00;;;9.40;48.80;;;;;;5004052;28;20045;-71
2023/04/04 10:08:47;;;;;;;3.42;1.30;;;9.50;50.50;;;;;;5010395;28;20095;-72
2023/04/04 10:11:12;;;;;;;2.38;1.25;;;9.70;50.00;;;;;;5009559;28;20468;-73
2023/04/04 10:13:45;;;;;;;2.67;1.10;;;9.70;49.30;;;;;;5012402;28;20132;-71
2023/04/04 10:16:12;;;;;;;1.83;0.98;;;9.50;47.40;;;;;;5013660;28;20068;-71
2023/04/04 10:18:38;;;;;;;4.05;1.42;;;9.70;48.40;;;;;;5014835;28;20037;-72
2023/04/04 10:21:05;;;;;;;4.28;0.90;;;9.80;49.40;;;;;;5006203;28;20106;-70
2023/04/04 10:23:33;;;;;;;3.13;1.20;;;9.60;48.80;;;;;;5009710;28;20432;-72
2023/04/04 10:25:59;;;;;;;3.75;1.33;;;9.60;48.40;;;;;;5008815;28;20048;-73
2023/04/04 10:28:26;;;;;;;1.63;1.10;;;9.40;46.40;;;;;;5013297;28;20041;-73
2023/04/04 10:31:11;;;;;;;1.90;0.93;;;9.20;48.10;;;;;;5008765;28;20042;-73
2023/04/04 10:34:02;;;;;;;4.68;1.20;;;9.30;46.80;;;;;;5013213;28;20374;-72
2023/04/04 10:36:34;;;;;;;2.75;1.17;;;9.30;47.50;;;;;;4993504;28;20038;-72
2023/04/04 10:39:07;;;;;;;1.95;1.08;;;9.50;48.70;;;;;;5011865;28;20046;-73
2023/04/04 10:41:34;;;;;;;3.72;1.20;;;9.30;48.30;;;;;;4995113;28;20113;-73
2023/04/04 10:44:08;;;;;;;2.65;1.05;;;9.90;48.70;;;;;;5030221;28;20034;-71
2023/04/04 10:46:37;;;;;;;6.30;1.48;;;9.90;48.50;;;;;;5031111;28;20532;-71
2023/04/04 10:49:03;;;;;;;2.58;1.30;;;10.20;47.10;;;;;;5011819;28;20064;-71
2023/04/04 10:51:30;;;;;;;2.03;1.00;;;10.40;47.80;;;;;;5010665;28;20042;-72
2023/04/04 10:53:57;;;;;;;1.92;0.82;;;10.40;47.20;;;;;;5010565;28;20045;-73
2023/04/04 10:56:23;;;;;;;2.58;1.38;;;10.40;45.50;;;;;;5011818;28;20058;-71
2023/04/04 10:58:49;;;;;;;3.65;1.40;;;10.20;45.20;;;;;;5008971;28;20636;-72
2023/04/04 11:01:19;;;;;;;2.80;1.23;;;10.30;45.20;;;;;;5012937;28;20477;-73
2023/04/04 11:04:21;;;;;;;3.05;0.95;;;10.60;45.40;;;;;;5009794;28;20095;-73
2023/04/04 11:07:05;;;;;;;2.75;1.13;;;10.90;41.70;;;;;;4992024;28;20496;-72
2023/04/04 11:09:50;;;;;;;2.45;1.10;;;10.70;42.20;;;;;;5015555;28;20489;-71
2023/04/04 11:12:22;;;;;;;2.72;1.20;;;11.20;42.20;;;;;;5010238;28;20112;-73
2023/04/04 11:15:20;;;;;;;2.45;1.88;;;11.40;44.20;;;;;;5014640;28;20072;-72
2023/04/04 11:17:56;;;;;;;3.72;1.40;;;11.10;36.90;;;;;;4999691;28;20064;-72
2023/04/04 11:20:30;;;;;;;5.32;1.20;;;10.80;40.90;;;;;;5014163;28;20064;-72
2023/04/04 11:23:04;;;;;;;2.42;1.05;;;10.90;41.10;;;;;;5030673;28;20687;-72
2023/04/04 11:25:30;;;;;;;3.72;1.67;;;10.90;41.70;;;;;;5013851;28;20041;-73
2023/04/04 11:27:57;;;;;;;2.25;1.40;;;10.80;41.00;;;;;;5014327;28;20051;-72
2023/04/04 11:30:23;;;;;;;3.75;1.48;;;10.80;40.20;;;;;;5014936;28;20425;-70
2023/04/04 11:32:49;;;;;;;3.58;1.15;;;10.90;41.80;;;;;;5014635;28;20362;-72
2023/04/04 11:35:15;;;;;;;2.00;1.00;;;11.30;41.50;;;;;;5011840;28;20045;-72
2023/04/04 11:37:51;;;;;;;2.72;1.13;;;11.40;41.10;;;;;;5015369;28;20151;-73
2023/04/04 11:40:17;;;;;;;1.75;1.17;;;11.10;38.00;;;;;;5013628;28;20494;-72
2023/04/04 11:42:43;;;;;;;4.15;1.33;;;10.70;39.10;;;;;;4997592;28;20116;-72
2023/04/04 11:45:17;;;;;;;2.47;1.23;;;10.70;39.60;;;;;;4996958;28;20074;-74
2023/04/04 11:47:46;;;;;;;5.05;1.50;;;10.90;39.20;;;;;;4997277;28;20056;-72
2023/04/04 11:50:13;;;;;;;1.85;1.05;;;11.20;40.40;;;;;;4994644;28;20073;-73
2023/04/04 11:52:41;;;;;;;2.97;1.10;;;11.30;39.80;;;;;;4996834;28;20042;-73
2023/04/04 11:55:15;;;;;;;4.25;1.17;;;11.30;39.60;;;;;;5011687;28;20053;-73
2023/04/04 11:57:41;;;;;;;1.67;0.90;;;11.40;36.80;;;;;;5015140;28;20136;-74
2023/04/04 12:00:07;;;;;;;2.92;0.90;;;11.10;35.90;;;;;;5014738;28;20547;-73
2023/04/04 12:02:34;;;;;;;2.25;1.20;;;11.00;35.60;;;;;;5014270;28;20444;-71
2023/04/04 12:05:00;;;;;;;2.90;1.45;;;11.30;36.80;;;;;;5006902;28;20029;-72
2023/04/04 12:07:28;;;;;;;1.95;0.95;;;11.50;36.70;;;;;;5009588;28;20037;-73
2023/04/04 12:09:54;;;;;;;2.08;1.40;;;11.70;36.20;;;;;;5014053;28;20536;-71
2023/04/04 12:12:21;;;;;;;2.05;1.20;;;11.50;35.90;;;;;;5013040;28;20045;-72
2023/04/04 12:14:47;;;;;;;2.67;1.13;;;11.50;35.90;;;;;;4999042;28;20029;-72
2023/04/04 12:17:15;;;;;;;2.75;1.20;;;11.90;35.70;;;;;;5014867;28;20477;-72
2023/04/04 12:19:41;;;;;;;3.42;1.27;;;12.10;35.40;;;;;;5013730;28;20405;-72
2023/04/04 12:22:07;;;;;;;2.58;1.10;;;12.30;36.10;;;;;;5029570;28;20049;-72
2023/04/04 12:24:36;;;;;;;3.33;1.63;;;12.30;35.50;;;;;;5013277;28;20041;-73
2023/04/04 12:27:03;;;;;;;3.55;1.15;;;12.40;36.40;;;;;;5010750;28;20048;-71
2023/04/04 12:29:37;;;;;;;1.70;1.45;;;12.30;36.40;;;;;;5015675;28;20041;-73
2023/04/04 12:32:04;;;;;;;1.67;1.10;;;12.20;35.90;;;;;;4997566;28;20121;-71
2023/04/04 12:34:33;;;;;;;1.98;1.23;;;12.10;36.60;;;;;;4995537;28;20128;-73
2023/04/04 12:37:00;;;;;;;2.47;1.40;;;12.10;35.60;;;;;;5013383;28;20040;-71
2023/04/04 12:39:27;;;;;;;4.32;1.27;;;12.30;35.30;;;;;;5015577;28;20049;-72
2023/04/04 12:41:57;;;;;;;1.50;1.33;;;12.40;36.00;;;;;;5015498;28;20553;-72
2023/04/04 12:44:34;;;;;;;2.72;1.30;;;12.50;35.90;;;;;;5015263;28;20049;-71
2023/04/04 12:47:03;;;;;;;3.63;1.10;;;12.60;35.30;;;;;;5013212;28;20046;-71
2023/04/04 12:49:30;;;;;;;2.08;1.38;;;12.90;35.90;;;;;;5014110;28;20080;-71